»·PEaware :: N1920F KVNY-KSBD

N1920F :: KVNY-KSBD

FLIGHT INFORMATION

Flight Status: Arrived
Operator: Privately registered:
United States
More flights under this callsign
Pilot: Mark S. (16827)
Aircraft: CESSNA 172 SKYHAWK
(C172)
More flights by this aircraft type
Origin: KVNY Van Nuys
United States
Destination: KSBD San Bernardino Intl
United States
More flights between these airports :: More routes between these airports
Route: +
File this flight plan on PilotEdge
Remarks:
Altitude:
(Current/Filed)
3,500ft
Speed:
(Current/Filed)
0kts
Departed: 12-Jan-18 05:14 PM
Arrived: 12-Jan-18 05:51 PM
Distance/Time
Traveled:
62nm/0:37
Distance/Time
To Go:
Arrived

Flight Plot

Page will automatically refresh every two minutes.

Flight plan parsing failed; only flown route is shown


Map Options




Map Legend


Flown Route
Filed Route
Departure Airport
Arrival Airport
Navaid (VOR, NDB)
Fix

Horizontal Profiles

Position Reports

Time Latitude Longitude Heading Altitude Ground
Speed
12-Jan-18 17:06 34.208154 -118.491839 88 779ft 0kts
12-Jan-18 17:07 34.208154 -118.491839 88 779ft 0kts
12-Jan-18 17:08 34.208154 -118.491839 88 779ft 0kts
12-Jan-18 17:09 34.208154 -118.491839 88 779ft 0kts
12-Jan-18 17:10 34.208154 -118.491839 88 779ft 0kts
12-Jan-18 17:11 34.208593 -118.491401 358 779ft 9kts
12-Jan-18 17:12 34.212467 -118.491769 353 779ft 16kts
12-Jan-18 17:13 34.215231 -118.492094 351 779ft 2kts
12-Jan-18 17:14 34.218136 -118.492319 354 779ft 7kts
12-Jan-18 17:15 34.218690 -118.492108 56 779ft 0kts
12-Jan-18 17:16 34.218690 -118.492108 56 779ft 0kts
12-Jan-18 17:17 34.218690 -118.492108 56 779ft 0kts
12-Jan-18 17:18 34.218690 -118.492108 56 779ft 0kts
12-Jan-18 17:19 34.218565 -118.491244 159 779ft 12kts
12-Jan-18 17:20 34.200230 -118.490015 172 1155ft 88kts
12-Jan-18 17:21 34.178941 -118.482409 158 1962ft 79kts
12-Jan-18 17:22 34.159700 -118.467890 139 2557ft 89kts
12-Jan-18 17:23 34.140242 -118.450152 145 3239ft 81kts
12-Jan-18 17:24 34.123500 -118.429799 112 3663ft 96kts
12-Jan-18 17:25 34.110317 -118.397124 115 3591ft 113kts
12-Jan-18 17:26 34.107263 -118.359926 92 3494ft 111kts
12-Jan-18 17:27 34.106426 -118.323524 92 3492ft 108kts
12-Jan-18 17:28 34.105901 -118.287208 92 3491ft 108kts
12-Jan-18 17:29 34.109294 -118.251008 84 3489ft 111kts
12-Jan-18 17:30 34.112962 -118.213510 94 3492ft 114kts
12-Jan-18 17:31 34.111590 -118.174876 94 3491ft 116kts
12-Jan-18 17:32 34.110749 -118.135634 93 3491ft 117kts
12-Jan-18 17:33 34.110181 -118.100882 93 3970ft 96kts
12-Jan-18 17:34 34.109499 -118.060436 92 3638ft 143kts
12-Jan-18 17:35 34.108201 -118.017638 92 3548ft 122kts
12-Jan-18 17:36 34.106114 -117.977598 92 3737ft 121kts
12-Jan-18 17:37 34.103484 -117.936441 92 3826ft 125kts
12-Jan-18 17:38 34.103019 -117.895034 86 3696ft 120kts
12-Jan-18 17:39 34.106657 -117.857631 80 3643ft 106kts
12-Jan-18 17:40 34.105885 -117.823260 94 3662ft 100kts
12-Jan-18 17:41 34.104441 -117.790153 91 3781ft 97kts
12-Jan-18 17:42 34.104248 -117.757647 84 3947ft 95kts
12-Jan-18 17:43 34.104138 -117.725247 87 4133ft 96kts
12-Jan-18 17:44 34.104248 -117.690366 86 4325ft 113kts
12-Jan-18 17:45 34.104780 -117.652072 86 4496ft 115kts
12-Jan-18 17:46 34.105395 -117.614020 90 4558ft 112kts
12-Jan-18 17:47 34.102293 -117.576731 95 4654ft 112kts
12-Jan-18 17:48 34.101581 -117.538720 86 4729ft 113kts
12-Jan-18 17:49 34.098916 -117.501108 95 4785ft 115kts
12-Jan-18 17:50 34.096013 -117.462400 95 4685ft 117kts
12-Jan-18 17:51 34.092595 -117.423700 95 4045ft 117kts
12-Jan-18 17:52 34.088795 -117.385600 95 3452ft 114kts
12-Jan-18 17:53 34.083196 -117.348709 97 2853ft 113kts
12-Jan-18 17:54 34.078009 -117.311531 89 2194ft 112kts
12-Jan-18 17:55 34.081875 -117.279020 61 1709ft 83kts
12-Jan-18 17:56 34.088671 -117.256907 61 1329ft 66kts
12-Jan-18 17:57 34.093873 -117.240089 63 1136ft 31kts
12-Jan-18 17:58 34.095505 -117.235976 2 1136ft 8kts
12-Jan-18 17:59 34.095830 -117.236059 329 1136ft 0kts
12-Jan-18 18:00 34.095830 -117.236059 329 1136ft 0kts
12-Jan-18 18:01 34.097991 -117.237525 330 1136ft 16kts
12-Jan-18 18:02 34.102350 -117.240591 323 1136ft 10kts
12-Jan-18 18:03 34.104196 -117.245576 283 1136ft 0kts
12-Jan-18 18:04 34.104196 -117.245576 283 1136ft 0kts

Navigation Log

Ident Type
Flight plan parsing failed, navigation log unavailable